AVV weather

Avalon Airport
Melbourne, Victoria, Australia

Public forecast

Using degrees Celsius for public forecast. Weather courtesy of forecast.io.

METAR (pilot weather report)

Retrieved 2019/04/21 11:30 UTC (13 minutes ago):

YMAV 211130Z AUTO 26012KT 9999 // BKN038 OVC105 16/11 Q1022

TAF (pilot weather forecast)

Forecast is more than 6 hours old.

Retrieved 2019/04/21 05:00 UTC (7 hours ago):

TAF YMAV 210505Z 2105/2206 21007KT 9999 -SHRA NSC FM211000 24012KT 9999 -SHRA SCT015 BKN025 FM211600 22008KT 9999 FEW018 BKN030 FM220200 15012KT 9999 SCT025 BKN035 INTER 2116/2120 5000 SHRA BKN010